Time;durP1;ratioP1;P1;durP2;ratioP2;P2;SDS_P1;SDS_P2;PMS_P1;PMS_P2;Temp;Humidity;BMP_temperature;BMP_pressure;BME280_temperature;BME280_humidity;BME280_pressure;Samples;Min_cycle;Max_cycle;Signal;HPM_P1;HPM_P2
2021/05/06 00:30:55;;;;;;;2.95;1.80;;;12.40;61.20;;;;;;5114273;28;20042;-89
2021/05/06 00:33:01;;;;;;;5.25;1.70;;;12.40;61.30;;;;;;5116217;28;20044;-90
2021/05/06 00:35:29;;;;;;;1.88;1.65;;;12.40;61.30;;;;;;5118561;28;20045;-89
2021/05/06 00:38:08;;;;;;;1.92;1.70;;;12.40;61.30;;;;;;5099382;28;20024;-91
2021/05/06 00:41:10;;;;;;;2.03;1.40;;;12.40;61.40;;;;;;5100175;28;20020;-91
2021/05/06 01:08:00;;;;;;;2.08;1.80;;;12.30;62.30;;;;;;5117583;28;20410;-89
2021/05/06 01:10:36;;;;;;;2.30;1.85;;;12.30;62.40;;;;;;5099111;28;20039;-90
2021/05/06 01:13:02;;;;;;;3.22;1.85;;;12.30;62.90;;;;;;5098655;28;20035;-88
2021/05/06 01:15:28;;;;;;;2.28;1.80;;;12.30;63.70;;;;;;5116803;28;20019;-91
2021/05/06 01:17:54;;;;;;;2.60;1.70;;;12.20;64.80;;;;;;5098915;28;20609;-89
2021/05/06 01:20:20;;;;;;;5.10;2.05;;;12.10;65.20;;;;;;5098673;28;20701;-89
2021/05/06 01:22:46;;;;;;;2.38;1.70;;;12.10;65.60;;;;;;5098965;28;20099;-90
2021/05/06 01:25:13;;;;;;;2.97;2.00;;;12.00;65.50;;;;;;5099077;28;20051;-90
2021/05/06 01:32:47;;;;;;;5.75;1.70;;;12.00;65.60;;;;;;5117490;28;20081;-90
2021/05/06 01:35:29;;;;;;;5.65;2.03;;;12.00;65.70;;;;;;5098865;28;20042;-92
2021/05/06 01:43:12;;;;;;;3.95;2.00;;;12.00;67.30;;;;;;5096430;28;20032;-89
2021/05/06 01:48:27;;;;;;;5.15;2.15;;;11.90;69.00;;;;;;5097491;28;20081;-91
2021/05/06 02:01:53;;;;;;;3.65;2.13;;;11.70;73.80;;;;;;5086104;28;20556;-91
2021/05/06 02:04:19;;;;;;;3.70;2.08;;;11.60;75.20;;;;;;5088297;28;20106;-90
2021/05/06 02:06:46;;;;;;;4.10;2.20;;;11.50;75.60;;;;;;5098164;28;20365;-91
2021/05/06 02:09:12;;;;;;;3.78;2.13;;;11.50;76.40;;;;;;5098678;28;20031;-90
2021/05/06 02:11:38;;;;;;;3.88;2.20;;;11.50;77.30;;;;;;5098664;28;20040;-89
2021/05/06 02:14:06;;;;;;;3.88;2.22;;;11.50;77.80;;;;;;5100186;28;20084;-89
2021/05/06 02:16:36;;;;;;;3.13;2.38;;;11.40;79.70;;;;;;5099720;28;20456;-89
2021/05/06 02:19:04;;;;;;;4.45;2.50;;;11.40;80.60;;;;;;5098131;28;20028;-89
2021/05/06 02:21:30;;;;;;;3.65;2.60;;;11.40;82.00;;;;;;5097449;28;20440;-91
2021/05/06 02:23:55;;;;;;;4.32;2.30;;;11.30;82.50;;;;;;5097481;28;20059;-89
2021/05/06 02:26:21;;;;;;;2.50;2.30;;;11.30;82.50;;;;;;5097886;28;20070;-89
2021/05/06 02:28:47;;;;;;;4.78;2.80;;;11.30;83.00;;;;;;5100910;28;20023;-90
2021/05/06 02:31:15;;;;;;;4.85;2.65;;;11.30;83.90;;;;;;5097386;28;20536;-90
2021/05/06 02:33:42;;;;;;;3.25;2.35;;;11.30;84.10;;;;;;5097126;28;20384;-91
2021/05/06 02:36:08;;;;;;;2.70;2.10;;;11.30;84.20;;;;;;5097653;28;20040;-92
2021/05/06 02:38:34;;;;;;;4.15;2.63;;;11.30;84.10;;;;;;5097420;28;20020;-91
2021/05/06 02:41:00;;;;;;;2.72;2.35;;;11.30;83.90;;;;;;5097274;28;20039;-91
2021/05/06 02:43:26;;;;;;;5.13;2.38;;;11.30;83.70;;;;;;5097375;28;20444;-91
2021/05/06 02:45:52;;;;;;;3.15;2.35;;;11.30;83.50;;;;;;5099290;28;20027;-91
2021/05/06 02:48:18;;;;;;;3.08;2.40;;;11.30;83.20;;;;;;5097814;28;20498;-90
2021/05/06 02:50:49;;;;;;;3.78;2.30;;;11.30;82.70;;;;;;5097021;28;20118;-89
2021/05/06 02:53:19;;;;;;;4.03;2.58;;;11.40;82.30;;;;;;5097077;28;20023;-90
2021/05/06 02:56:11;;;;;;;3.38;2.10;;;11.40;81.70;;;;;;5115483;28;20357;-89
2021/05/06 03:03:50;;;;;;;4.95;2.47;;;11.40;80.70;;;;;;5115710;28;20031;-89
2021/05/06 03:06:25;;;;;;;3.70;2.40;;;11.40;80.40;;;;;;5114640;28;20023;-88
2021/05/06 03:08:56;;;;;;;3.30;2.42;;;11.40;80.20;;;;;;5096880;28;20031;-90
2021/05/06 03:14:25;;;;;;;4.22;2.17;;;11.50;79.30;;;;;;5115194;28;20072;-90
2021/05/06 03:25:09;;;;;;;3.50;2.35;;;11.50;77.80;;;;;;5115464;28;20058;-90
2021/05/06 03:27:38;;;;;;;4.88;2.40;;;11.50;77.70;;;;;;5115478;28;20036;-90
2021/05/06 03:34:37;;;;;;;3.83;2.50;;;11.50;77.30;;;;;;5116166;28;20164;-92
2021/05/06 03:46:28;;;;;;;3.00;2.47;;;11.70;77.10;;;;;;5123242;28;20043;-89
2021/05/06 04:18:29;;;;;;;4.20;2.50;;;12.70;75.00;;;;;;5094578;28;20115;-89
2021/05/06 04:26:52;;;;;;;3.72;2.03;;;13.00;72.90;;;;;;5100444;28;20054;-89
2021/05/06 04:37:08;;;;;;;5.90;2.03;;;13.20;70.70;;;;;;5114836;28;20054;-90
2021/05/06 04:39:40;;;;;;;5.38;2.50;;;13.30;70.40;;;;;;5092287;28;20764;-89
2021/05/06 04:42:30;;;;;;;6.10;2.00;;;13.40;68.70;;;;;;5108692;28;20034;-93
2021/05/06 04:55:52;;;;;;;2.67;1.80;;;14.50;64.40;;;;;;5106684;28;20042;-90
2021/05/06 05:06:22;;;;;;;5.53;1.75;;;15.20;61.60;;;;;;5112981;28;20035;-92
2021/05/06 05:27:08;;;;;;;4.00;2.08;;;15.20;58.70;;;;;;5107042;28;20065;-90
2021/05/06 05:29:33;;;;;;;2.13;1.65;;;15.30;58.40;;;;;;5097179;28;20061;-90
2021/05/06 05:32:01;;;;;;;3.50;1.63;;;15.30;58.80;;;;;;5082931;28;20039;-90
2021/05/06 05:34:32;;;;;;;4.05;2.00;;;15.50;58.10;;;;;;5088374;28;20028;-89
2021/05/06 05:36:58;;;;;;;2.45;1.80;;;15.60;57.70;;;;;;5090739;28;20262;-91
2021/05/06 05:55:15;;;;;;;6.05;2.28;;;15.40;57.60;;;;;;5097343;28;20126;-91
2021/05/06 05:57:41;;;;;;;4.13;2.13;;;15.30;58.10;;;;;;5082455;28;20040;-91
2021/05/06 06:00:08;;;;;;;6.90;1.90;;;15.50;58.20;;;;;;5084830;28;20024;-91
2021/05/06 06:02:35;;;;;;;2.55;1.55;;;16.00;57.70;;;;;;5088328;28;20126;-94
2021/05/06 06:05:01;;;;;;;1.60;1.30;;;16.60;57.20;;;;;;5089353;28;20091;-93
2021/05/06 06:07:28;;;;;;;7.40;1.70;;;17.30;55.80;;;;;;5088827;28;20051;-92
2021/05/06 06:09:54;;;;;;;3.97;1.60;;;17.80;53.70;;;;;;5089243;28;20072;-92
2021/05/06 06:12:20;;;;;;;2.88;1.60;;;17.80;53.30;;;;;;5093256;28;20039;-91
2021/05/06 06:14:50;;;;;;;3.55;1.52;;;17.60;52.80;;;;;;5089698;28;20031;-90
2021/05/06 06:17:16;;;;;;;7.18;1.80;;;17.30;52.40;;;;;;5080403;28;20035;-89
2021/05/06 06:19:48;;;;;;;2.00;1.42;;;16.90;53.10;;;;;;5096248;28;20031;-91
2021/05/06 06:22:17;;;;;;;2.85;1.38;;;16.70;53.50;;;;;;5082236;28;20349;-89
2021/05/06 06:24:42;;;;;;;3.72;1.80;;;16.50;54.00;;;;;;5081092;28;20035;-88
2021/05/06 06:27:08;;;;;;;3.17;1.40;;;16.30;54.60;;;;;;5088359;28;20029;-87
2021/05/06 06:29:35;;;;;;;2.63;1.65;;;16.20;54.30;;;;;;5088168;28;20451;-87
2021/05/06 06:32:16;;;;;;;3.97;1.60;;;16.00;53.60;;;;;;5090149;28;20028;-93
2021/05/06 06:34:42;;;;;;;5.05;1.50;;;16.00;53.40;;;;;;5084467;28;20024;-91
2021/05/06 06:37:08;;;;;;;5.18;2.00;;;15.80;53.40;;;;;;5094419;28;20072;-91
2021/05/06 06:39:38;;;;;;;2.80;1.33;;;15.70;53.30;;;;;;5089343;28;20035;-89
2021/05/06 06:42:07;;;;;;;1.70;1.30;;;15.70;53.20;;;;;;5096367;28;20440;-88
2021/05/06 06:44:36;;;;;;;2.65;1.30;;;15.70;53.40;;;;;;5094832;28;20031;-90
2021/05/06 06:47:05;;;;;;;1.88;1.20;;;15.70;53.70;;;;;;5097119;28;20011;-91
2021/05/06 06:49:39;;;;;;;3.72;1.50;;;15.80;53.70;;;;;;5088508;28;20028;-91
2021/05/06 06:52:08;;;;;;;5.05;1.63;;;15.80;53.40;;;;;;5073434;28;20027;-91
2021/05/06 06:54:34;;;;;;;2.88;1.50;;;15.80;53.60;;;;;;5089458;28;20039;-90
2021/05/06 06:57:00;;;;;;;1.77;1.55;;;15.60;54.00;;;;;;5089331;28;20471;-92
2021/05/06 06:59:27;;;;;;;3.67;1.55;;;15.50;54.20;;;;;;5108932;28;20063;-90
2021/05/06 07:02:09;;;;;;;3.47;1.77;;;15.50;54.60;;;;;;5795307;22;20117;-91
2021/05/06 07:07:26;;;;;;;2.75;1.73;;;15.50;55.10;;;;;;5804227;22;20029;-92
2021/05/06 07:09:52;;;;;;;5.00;1.90;;;15.50;55.20;;;;;;5416469;23;20054;-89
2021/05/06 07:12:18;;;;;;;3.83;1.77;;;15.50;55.40;;;;;;4986855;28;20026;-89
2021/05/06 07:14:44;;;;;;;2.17;1.60;;;15.50;55.90;;;;;;4986204;28;20030;-92
2021/05/06 07:17:10;;;;;;;2.83;1.70;;;15.40;56.70;;;;;;4972494;28;20061;-91
2021/05/06 07:19:36;;;;;;;3.17;1.88;;;15.30;57.70;;;;;;4978244;28;20258;-91
2021/05/06 07:22:03;;;;;;;3.55;1.80;;;15.30;58.10;;;;;;4973193;28;20483;-90
2021/05/06 07:24:31;;;;;;;5.82;1.70;;;15.20;58.50;;;;;;4975466;28;20034;-91
2021/05/06 07:26:57;;;;;;;3.88;1.58;;;15.20;58.90;;;;;;4971441;28;20251;-92
2021/05/06 07:29:23;;;;;;;3.05;1.50;;;15.30;60.00;;;;;;4978376;28;20115;-92
2021/05/06 07:31:50;;;;;;;3.17;1.90;;;15.40;61.10;;;;;;4976716;28;20148;-92
2021/05/06 07:34:19;;;;;;;4.97;1.55;;;15.80;62.70;;;;;;4979730;28;20061;-92
2021/05/06 07:36:46;;;;;;;2.92;1.75;;;16.40;61.40;;;;;;4991278;28;20530;-94
2021/05/06 07:39:13;;;;;;;2.00;1.80;;;16.90;60.90;;;;;;5003497;28;20030;-90
2021/05/06 07:41:38;;;;;;;5.18;1.90;;;17.60;59.70;;;;;;4969692;28;20026;-90
2021/05/06 07:44:05;;;;;;;3.10;1.52;;;18.30;58.10;;;;;;4979598;28;20041;-89
2021/05/06 07:46:31;;;;;;;4.45;1.73;;;18.70;56.50;;;;;;4975683;28;20490;-91
2021/05/06 07:48:57;;;;;;;2.80;1.80;;;18.80;55.00;;;;;;4980610;28;20065;-90
2021/05/06 07:51:23;;;;;;;3.95;1.50;;;18.40;54.90;;;;;;4975331;28;20031;-90
2021/05/06 07:53:53;;;;;;;4.18;1.60;;;17.90;55.60;;;;;;4979359;28;20435;-89
2021/05/06 07:56:19;;;;;;;3.45;1.65;;;17.60;56.50;;;;;;4977989;28;20033;-90
2021/05/06 07:58:45;;;;;;;3.13;1.60;;;17.40;57.70;;;;;;4976396;28;20022;-91
2021/05/06 08:01:11;;;;;;;2.42;1.55;;;17.50;58.50;;;;;;4972639;28;20029;-90
2021/05/06 08:03:38;;;;;;;2.05;1.50;;;17.90;58.40;;;;;;4969199;28;20026;-89
2021/05/06 08:06:04;;;;;;;3.40;1.88;;;18.30;57.90;;;;;;4980839;28;20066;-92
2021/05/06 08:08:31;;;;;;;8.77;1.65;;;18.60;56.50;;;;;;4967230;28;20479;-89
2021/05/06 08:11:00;;;;;;;2.50;1.73;;;18.60;55.90;;;;;;4975838;28;20046;-88
2021/05/06 08:13:28;;;;;;;7.82;2.35;;;18.50;55.90;;;;;;4972606;28;20435;-90
2021/05/06 08:15:55;;;;;;;2.95;1.80;;;18.60;56.00;;;;;;4972214;28;20061;-88
2021/05/06 08:18:24;;;;;;;4.95;2.10;;;18.80;56.10;;;;;;4973747;28;20103;-90
2021/05/06 08:20:50;;;;;;;2.42;1.50;;;19.10;55.60;;;;;;4974553;28;20093;-90
2021/05/06 08:23:16;;;;;;;2.50;1.73;;;19.10;54.50;;;;;;4975330;28;20127;-88
2021/05/06 08:25:42;;;;;;;3.75;1.90;;;18.90;55.40;;;;;;4984786;28;20109;-91
2021/05/06 08:28:10;;;;;;;5.05;2.00;;;19.00;55.60;;;;;;4979379;28;20484;-87
2021/05/06 08:30:36;;;;;;;2.35;1.30;;;19.50;54.80;;;;;;4982045;28;20018;-90
2021/05/06 08:33:03;;;;;;;3.63;1.90;;;20.00;54.20;;;;;;4998772;28;20458;-90
2021/05/06 08:35:29;;;;;;;5.32;1.60;;;20.50;54.00;;;;;;4981356;28;20022;-90
2021/05/06 08:37:55;;;;;;;2.65;1.58;;;21.00;53.10;;;;;;4984819;28;20042;-93
2021/05/06 08:40:21;;;;;;;2.95;1.50;;;21.00;52.20;;;;;;4974912;28;20034;-88
2021/05/06 08:42:51;;;;;;;2.67;1.77;;;20.70;51.10;;;;;;4982212;28;20037;-91
2021/05/06 08:45:18;;;;;;;2.78;1.50;;;20.20;52.00;;;;;;4972786;28;20113;-89
2021/05/06 08:47:45;;;;;;;2.97;1.73;;;19.50;53.20;;;;;;4979820;28;20026;-87
2021/05/06 08:50:16;;;;;;;3.35;1.73;;;18.90;54.30;;;;;;4972059;28;20074;-88
2021/05/06 08:52:41;;;;;;;4.55;1.90;;;18.30;56.00;;;;;;4987721;28;20031;-90
2021/05/06 08:55:08;;;;;;;5.22;1.73;;;17.70;57.50;;;;;;4975792;28;20041;-88
2021/05/06 08:57:34;;;;;;;3.42;2.13;;;17.40;58.70;;;;;;4990512;28;20065;-89
2021/05/06 09:00:00;;;;;;;6.10;1.83;;;17.30;59.70;;;;;;4966850;28;20041;-90
2021/05/06 09:02:26;;;;;;;4.07;1.90;;;17.30;60.00;;;;;;4981635;28;20034;-90
2021/05/06 09:04:52;;;;;;;6.13;2.00;;;17.70;60.50;;;;;;4994424;28;20038;-90
2021/05/06 09:07:21;;;;;;;5.28;1.95;;;18.30;60.00;;;;;;4977364;28;20117;-90
2021/05/06 09:09:50;;;;;;;5.15;2.47;;;19.40;59.50;;;;;;4976392;28;20061;-89
2021/05/06 09:12:19;;;;;;;2.92;2.10;;;20.50;57.80;;;;;;4976629;28;20661;-89
2021/05/06 09:14:47;;;;;;;3.65;2.20;;;21.20;54.40;;;;;;4978273;28;20213;-88
2021/05/06 09:17:28;;;;;;;3.63;2.33;;;21.80;53.70;;;;;;4976715;28;20034;-90
2021/05/06 09:20:03;;;;;;;4.28;2.33;;;22.50;53.10;;;;;;4992756;28;20041;-89
2021/05/06 09:22:38;;;;;;;3.42;2.05;;;22.70;50.90;;;;;;4975380;28;20053;-90
2021/05/06 09:25:27;;;;;;;5.00;1.98;;;22.50;50.70;;;;;;4969904;28;20058;-91
2021/05/06 09:28:02;;;;;;;6.03;2.13;;;22.00;50.60;;;;;;4989267;28;20034;-88
2021/05/06 09:30:38;;;;;;;3.22;1.80;;;21.30;51.30;;;;;;4990154;28;20037;-89
2021/05/06 09:33:09;;;;;;;4.07;2.13;;;20.50;52.70;;;;;;4974520;28;20065;-91
2021/05/06 09:35:43;;;;;;;4.80;1.90;;;19.80;54.50;;;;;;4980643;28;20053;-90
2021/05/06 09:38:31;;;;;;;4.82;2.08;;;19.30;55.30;;;;;;4985987;28;20054;-90
2021/05/06 09:41:03;;;;;;;5.40;2.25;;;18.70;56.60;;;;;;4985297;28;20046;-91
2021/05/06 09:43:34;;;;;;;2.92;1.70;;;18.30;58.70;;;;;;4971455;28;20085;-91
2021/05/06 09:46:01;;;;;;;4.75;2.30;;;17.90;60.10;;;;;;4976747;28;20038;-92
2021/05/06 09:51:09;;;;;;;3.20;2.28;;;17.10;64.40;;;;;;5007375;28;20127;-92
2021/05/06 09:53:37;;;;;;;4.75;3.17;;;16.80;67.00;;;;;;4992509;28;20084;-91
2021/05/06 09:56:04;;;;;;;5.88;2.90;;;16.50;69.40;;;;;;4987467;28;20026;-92
2021/05/06 09:58:32;;;;;;;4.50;2.60;;;16.20;72.30;;;;;;4986718;28;20018;-89
2021/05/06 10:01:08;;;;;;;5.72;3.10;;;16.00;73.70;;;;;;4987448;28;20035;-94
2021/05/06 10:03:34;;;;;;;5.88;2.95;;;15.80;76.20;;;;;;4989786;28;20052;-90
2021/05/06 10:06:29;;;;;;;5.88;2.90;;;15.60;78.20;;;;;;4985751;28;20634;-91
2021/05/06 10:09:03;;;;;;;5.50;2.97;;;15.40;79.00;;;;;;4978237;28;20050;-92
2021/05/06 10:11:32;;;;;;;3.65;2.85;;;15.20;81.30;;;;;;4974314;28;20498;-92
2021/05/06 10:13:59;;;;;;;4.82;2.88;;;15.00;84.50;;;;;;4976093;28;20064;-92
2021/05/06 10:16:26;;;;;;;4.63;2.75;;;14.90;85.00;;;;;;4988422;28;20034;-91
2021/05/06 10:18:53;;;;;;;4.57;2.65;;;14.90;85.20;;;;;;4984172;28;20030;-91
2021/05/06 10:21:22;;;;;;;4.45;2.55;;;14.90;85.40;;;;;;4988524;28;20030;-90
2021/05/06 10:23:55;;;;;;;3.47;2.53;;;15.00;85.60;;;;;;5009664;28;20042;-89
2021/05/06 10:26:23;;;;;;;3.70;2.50;;;15.20;85.30;;;;;;5003487;28;20122;-92
2021/05/06 10:28:52;;;;;;;3.75;2.55;;;15.40;84.70;;;;;;4999121;28;20049;-92
2021/05/06 10:31:17;;;;;;;4.10;2.40;;;15.50;83.60;;;;;;4977184;28;20437;-90
2021/05/06 10:33:44;;;;;;;6.25;2.85;;;15.70;82.60;;;;;;4987324;28;20093;-89
2021/05/06 10:36:11;;;;;;;5.28;2.60;;;15.70;81.00;;;;;;4999301;28;20093;-92
2021/05/06 10:38:41;;;;;;;5.43;3.10;;;15.70;80.40;;;;;;4999702;28;20026;-90
2021/05/06 10:41:34;;;;;;;3.72;2.90;;;15.70;79.60;;;;;;4991549;28;20030;-92
2021/05/06 10:44:02;;;;;;;4.85;2.90;;;15.60;79.80;;;;;;5015330;28;20038;-93
2021/05/06 10:47:02;;;;;;;5.70;3.10;;;15.50;80.20;;;;;;4992655;28;20029;-91
2021/05/06 10:49:29;;;;;;;4.97;2.83;;;15.40;81.00;;;;;;4995130;28;20042;-91
2021/05/06 10:52:00;;;;;;;5.60;2.63;;;15.40;80.60;;;;;;5001286;28;20044;-92
2021/05/06 10:54:28;;;;;;;4.70;3.00;;;15.40;80.80;;;;;;4994988;28;20030;-91
2021/05/06 10:56:55;;;;;;;4.63;2.65;;;15.40;81.10;;;;;;4992019;28;20018;-91
2021/05/06 10:59:37;;;;;;;5.60;2.72;;;15.40;81.30;;;;;;4997326;28;20069;-91
2021/05/06 11:02:04;;;;;;;6.93;3.05;;;15.50;81.90;;;;;;4999219;28;20040;-91
2021/05/06 11:04:37;;;;;;;4.57;3.38;;;15.50;82.80;;;;;;5012700;28;20062;-90
2021/05/06 11:07:18;;;;;;;5.88;3.20;;;15.60;83.40;;;;;;4989423;28;20367;-91
2021/05/06 11:09:45;;;;;;;4.90;3.95;;;15.60;84.40;;;;;;5012621;28;20032;-91
2021/05/06 11:12:30;;;;;;;6.03;4.25;;;15.60;86.70;;;;;;4998425;28;20030;-89
2021/05/06 11:15:03;;;;;;;6.35;4.80;;;15.60;88.20;;;;;;4986366;28;20030;-90
2021/05/06 11:17:32;;;;;;;7.10;5.25;;;15.60;88.90;;;;;;4987798;28;20503;-88
2021/05/06 11:20:03;;;;;;;10.27;7.13;;;15.60;89.20;;;;;;4989223;28;20039;-89
2021/05/06 11:25:31;;;;;;;10.52;6.47;;;15.60;89.00;;;;;;5007323;28;20499;-89
2021/05/06 11:28:05;;;;;;;10.95;4.93;;;15.70;88.70;;;;;;4998250;28;20056;-90
2021/05/06 11:30:37;;;;;;;6.30;3.83;;;15.80;88.00;;;;;;4986455;28;20040;-90
2021/05/06 11:33:18;;;;;;;6.00;3.55;;;15.80;87.10;;;;;;4991302;28;20029;-89
2021/05/06 11:36:04;;;;;;;5.28;3.50;;;15.90;85.40;;;;;;4993301;28;20033;-90
2021/05/06 11:38:39;;;;;;;5.63;3.42;;;15.90;84.30;;;;;;4983755;28;20373;-90
2021/05/06 11:41:07;;;;;;;;;;;15.80;84.40;;;;;;4992477;28;20044;-90
2021/05/06 11:43:40;;;;;;;6.28;2.97;;;15.80;84.30;;;;;;5009506;28;19905;-90
2021/05/06 11:46:07;;;;;;;3.67;3.20;;;15.70;83.60;;;;;;4985719;28;20022;-89
2021/05/06 11:48:34;;;;;;;6.28;3.05;;;15.70;83.10;;;;;;4989661;28;20088;-90
2021/05/06 11:51:00;;;;;;;4.18;3.08;;;15.70;83.30;;;;;;4988969;28;20036;-89
2021/05/06 11:53:26;;;;;;;3.63;2.70;;;15.80;83.60;;;;;;4989404;28;20021;-90
2021/05/06 11:55:51;;;;;;;4.28;3.17;;;15.90;83.80;;;;;;4992963;28;20036;-89
2021/05/06 11:58:29;;;;;;;4.60;3.22;;;16.00;83.00;;;;;;4991716;28;20033;-89
2021/05/06 12:00:55;;;;;;;6.03;2.88;;;16.10;82.40;;;;;;4994128;28;20050;-88
2021/05/06 12:03:34;;;;;;;3.53;3.13;;;16.30;81.40;;;;;;4988018;28;20102;-90
2021/05/06 12:06:01;;;;;;;3.67;3.05;;;16.40;80.40;;;;;;4987925;28;20430;-91
2021/05/06 12:08:31;;;;;;;4.97;3.10;;;16.40;78.80;;;;;;4989159;28;20022;-89
2021/05/06 12:10:59;;;;;;;3.30;3.00;;;16.40;77.50;;;;;;4993214;28;20037;-90
2021/05/06 12:13:37;;;;;;;3.05;2.47;;;16.40;77.40;;;;;;4991048;28;20018;-89
2021/05/06 12:16:22;;;;;;;4.05;2.92;;;16.40;76.90;;;;;;4991505;28;20510;-90
2021/05/06 12:19:09;;;;;;;3.30;3.00;;;16.50;75.60;;;;;;4993870;28;20037;-89
2021/05/06 12:21:45;;;;;;;3.25;2.95;;;16.40;74.90;;;;;;5010094;28;20042;-90
2021/05/06 12:24:33;;;;;;;3.72;3.20;;;16.40;74.00;;;;;;4974078;28;20105;-90
2021/05/06 12:27:22;;;;;;;3.80;3.40;;;16.30;73.60;;;;;;4982742;28;20093;-89
2021/05/06 12:30:11;;;;;;;5.80;3.38;;;16.40;74.20;;;;;;4994923;28;20118;-89
2021/05/06 12:32:43;;;;;;;4.32;3.45;;;16.40;75.30;;;;;;5011549;28;20574;-89
2021/05/06 12:35:09;;;;;;;6.30;3.40;;;16.60;75.10;;;;;;4996543;28;20029;-90
2021/05/06 12:37:37;;;;;;;4.80;3.53;;;16.70;75.50;;;;;;4997603;28;20730;-89
2021/05/06 12:40:13;;;;;;;4.20;3.42;;;16.60;75.10;;;;;;5012898;28;20135;-89
2021/05/06 12:42:39;;;;;;;5.85;3.28;;;16.50;74.80;;;;;;4998384;28;20033;-88
2021/05/06 12:45:24;;;;;;;3.47;2.97;;;16.50;74.50;;;;;;4987655;28;20049;-89
2021/05/06 12:47:50;;;;;;;3.35;2.90;;;16.40;74.70;;;;;;4997177;28;20038;-89
2021/05/06 12:50:30;;;;;;;4.82;3.63;;;16.40;74.60;;;;;;5009337;28;20380;-90
2021/05/06 12:53:06;;;;;;;3.20;2.90;;;16.30;74.20;;;;;;4988134;28;20049;-90
2021/05/06 12:55:42;;;;;;;3.58;3.00;;;16.30;74.00;;;;;;4988798;28;20057;-90
2021/05/06 12:58:15;;;;;;;5.30;4.05;;;16.20;73.80;;;;;;5009395;28;20082;-91
2021/05/06 13:00:43;;;;;;;2.95;2.65;;;16.20;74.20;;;;;;5000434;28;20403;-91
2021/05/06 13:03:11;;;;;;;4.32;3.10;;;16.10;74.30;;;;;;4995184;28;20034;-90
2021/05/06 13:05:41;;;;;;;3.30;2.70;;;16.10;74.60;;;;;;4995947;28;20034;-90
2021/05/06 13:08:07;;;;;;;3.05;2.85;;;16.10;74.60;;;;;;4997646;28;20018;-90
2021/05/06 13:10:39;;;;;;;4.00;3.28;;;16.10;74.70;;;;;;4996073;28;20029;-90
2021/05/06 13:13:07;;;;;;;3.90;3.20;;;16.00;74.30;;;;;;4997331;28;20026;-90
2021/05/06 13:15:50;;;;;;;4.53;3.40;;;16.00;74.20;;;;;;4989526;28;20522;-91
2021/05/06 13:18:17;;;;;;;3.92;3.40;;;16.00;74.50;;;;;;4994124;28;20034;-90
2021/05/06 13:20:44;;;;;;;5.45;3.80;;;16.00;74.50;;;;;;4983293;28;20039;-92
2021/05/06 13:23:15;;;;;;;7.68;3.97;;;16.00;74.70;;;;;;4980005;28;20030;-90
2021/05/06 13:25:51;;;;;;;5.53;4.22;;;16.00;74.70;;;;;;4994424;28;20080;-91
2021/05/06 13:28:37;;;;;;;4.13;3.38;;;16.00;74.50;;;;;;4998160;28;20022;-90
2021/05/06 13:31:15;;;;;;;3.75;3.30;;;16.00;74.50;;;;;;4964925;28;20043;-90
2021/05/06 13:33:41;;;;;;;5.40;3.38;;;16.00;74.60;;;;;;5014555;28;20120;-90
2021/05/06 13:36:11;;;;;;;4.43;3.30;;;15.90;74.60;;;;;;4993735;28;20035;-90
2021/05/06 13:38:52;;;;;;;4.93;2.90;;;15.90;74.70;;;;;;4987637;28;20026;-90
2021/05/06 13:41:30;;;;;;;4.13;3.50;;;15.80;74.70;;;;;;4986549;28;20117;-91
2021/05/06 13:43:58;;;;;;;6.78;3.30;;;15.80;74.80;;;;;;4996313;28;20030;-90
2021/05/06 13:46:25;;;;;;;4.20;3.33;;;15.80;74.60;;;;;;5014606;28;20064;-90
2021/05/06 13:48:51;;;;;;;3.45;3.15;;;15.80;74.70;;;;;;4996836;28;20026;-91
2021/05/06 13:51:18;;;;;;;4.78;3.42;;;15.90;74.80;;;;;;4987226;28;20021;-91
2021/05/06 13:53:46;;;;;;;4.43;3.28;;;15.90;74.70;;;;;;5001961;28;20037;-90
2021/05/06 13:56:12;;;;;;;4.55;3.15;;;16.00;74.30;;;;;;5018964;28;20022;-91
2021/05/06 13:58:39;;;;;;;5.05;3.30;;;16.00;73.90;;;;;;4999538;28;20120;-91
2021/05/06 14:01:07;;;;;;;5.30;2.83;;;16.00;73.60;;;;;;4990218;28;20041;-89
2021/05/06 14:03:33;;;;;;;2.70;2.50;;;16.00;72.90;;;;;;4998173;28;20026;-90
2021/05/06 14:06:02;;;;;;;3.28;2.65;;;16.00;72.60;;;;;;4990852;28;20507;-90
2021/05/06 14:08:28;;;;;;;3.30;2.60;;;16.00;72.60;;;;;;4983659;28;20029;-91
2021/05/06 14:10:55;;;;;;;2.88;2.58;;;16.00;72.30;;;;;;5000934;28;20038;-90
2021/05/06 14:13:21;;;;;;;2.75;2.47;;;16.20;72.20;;;;;;4989899;28;20049;-90
2021/05/06 14:15:48;;;;;;;4.10;2.65;;;16.30;72.50;;;;;;4996591;28;20033;-90
2021/05/06 14:18:14;;;;;;;4.68;2.63;;;16.60;71.60;;;;;;4999461;28;20022;-90
2021/05/06 14:20:42;;;;;;;4.78;2.60;;;16.80;71.50;;;;;;5005946;28;20041;-89
2021/05/06 14:23:09;;;;;;;2.50;2.30;;;17.40;70.90;;;;;;4996788;28;20022;-89
2021/05/06 14:25:36;;;;;;;3.45;2.60;;;17.80;69.30;;;;;;4997524;28;20054;-89
2021/05/06 14:28:04;;;;;;;4.93;2.20;;;18.30;67.30;;;;;;4997820;28;20062;-88
2021/05/06 14:30:30;;;;;;;3.25;2.00;;;18.70;65.70;;;;;;5009220;28;20026;-89
2021/05/06 14:32:56;;;;;;;2.55;2.10;;;19.10;64.80;;;;;;4997300;28;20036;-89
2021/05/06 14:35:22;;;;;;;1.80;1.70;;;19.50;63.90;;;;;;4997344;28;20030;-90
2021/05/06 14:37:48;;;;;;;4.18;1.85;;;19.70;63.00;;;;;;5016611;28;20017;-89
2021/05/06 14:40:14;;;;;;;1.77;1.58;;;19.90;62.50;;;;;;4990652;28;20376;-89
2021/05/06 14:42:40;;;;;;;1.50;1.40;;;20.10;61.80;;;;;;4980690;28;20038;-90
2021/05/06 14:45:09;;;;;;;1.50;1.40;;;20.40;61.30;;;;;;4995724;28;20510;-90
2021/05/06 14:47:38;;;;;;;2.22;1.42;;;20.60;59.60;;;;;;4981305;28;20056;-90
2021/05/06 14:50:10;;;;;;;1.88;1.30;;;20.50;58.60;;;;;;4997449;28;20294;-89
2021/05/06 14:52:36;;;;;;;1.67;1.40;;;20.30;57.50;;;;;;4996468;28;20041;-88
2021/05/06 14:55:04;;;;;;;1.30;1.20;;;20.00;57.40;;;;;;4996919;28;20033;-89
2021/05/06 14:57:29;;;;;;;1.20;0.98;;;19.70;57.00;;;;;;4993435;28;20467;-90
2021/05/06 14:59:55;;;;;;;1.13;0.90;;;19.40;57.00;;;;;;4995892;28;20172;-91
2021/05/06 15:02:21;;;;;;;1.10;0.90;;;19.20;57.10;;;;;;4999949;28;20044;-89
2021/05/06 15:04:47;;;;;;;1.20;1.10;;;18.80;56.40;;;;;;4998918;28;20394;-90
2021/05/06 15:07:13;;;;;;;1.35;1.25;;;18.60;56.90;;;;;;5011346;28;20021;-89
2021/05/06 15:09:38;;;;;;;1.50;1.00;;;18.30;56.90;;;;;;5021295;28;20014;-90
2021/05/06 15:12:06;;;;;;;1.08;0.98;;;18.10;56.90;;;;;;5027319;28;20033;-90
2021/05/06 15:14:31;;;;;;;1.05;0.82;;;17.90;56.90;;;;;;4998568;28;20086;-90
2021/05/06 15:16:57;;;;;;;1.70;1.30;;;17.70;56.80;;;;;;4997124;28;20072;-90
2021/05/06 15:19:23;;;;;;;1.02;1.00;;;17.50;57.20;;;;;;4997322;28;20034;-89
2021/05/06 15:21:52;;;;;;;1.30;1.00;;;17.50;57.20;;;;;;4981020;28;20034;-90
2021/05/06 15:24:17;;;;;;;1.25;1.02;;;17.40;57.20;;;;;;4996596;28;20041;-90
2021/05/06 15:26:43;;;;;;;2.90;0.82;;;17.30;57.10;;;;;;4979320;28;20018;-89
2021/05/06 15:29:09;;;;;;;1.50;1.20;;;17.10;56.90;;;;;;4983186;28;20027;-90
2021/05/06 15:31:38;;;;;;;1.27;1.17;;;17.00;56.70;;;;;;4997090;28;20030;-90
2021/05/06 15:34:05;;;;;;;1.80;1.40;;;16.80;56.60;;;;;;4999107;28;20029;-90
2021/05/06 15:36:31;;;;;;;1.55;1.08;;;16.70;56.60;;;;;;5009344;28;20026;-90
2021/05/06 15:39:01;;;;;;;2.72;1.20;;;16.60;56.70;;;;;;4996790;28;20041;-89
2021/05/06 15:41:27;;;;;;;2.25;0.90;;;16.60;56.60;;;;;;5014276;28;20038;-89
2021/05/06 15:43:53;;;;;;;1.13;0.93;;;16.50;56.70;;;;;;4997805;28;20526;-90
2021/05/06 15:46:19;;;;;;;1.52;0.95;;;16.40;56.60;;;;;;4997389;28;20072;-90
2021/05/06 15:48:45;;;;;;;2.92;1.55;;;16.40;56.70;;;;;;4988574;28;20026;-90
2021/05/06 15:51:11;;;;;;;1.83;1.52;;;16.30;56.50;;;;;;5010198;28;20495;-90
2021/05/06 15:53:37;;;;;;;1.40;1.30;;;16.20;56.60;;;;;;4994938;28;20164;-90
2021/05/06 15:56:15;;;;;;;1.70;1.50;;;16.10;56.40;;;;;;4996349;28;20088;-90
2021/05/06 15:58:41;;;;;;;2.75;2.30;;;16.00;55.70;;;;;;4999689;28;20026;-90
2021/05/06 16:01:07;;;;;;;10.13;7.53;;;15.90;56.10;;;;;;4997622;28;20403;-90
2021/05/06 16:03:43;;;;;;;6.65;4.93;;;15.80;56.00;;;;;;4997350;28;20391;-89
2021/05/06 16:06:09;;;;;;;4.88;2.70;;;15.70;55.90;;;;;;4997665;28;20026;-91
2021/05/06 16:08:35;;;;;;;3.13;2.33;;;15.60;56.10;;;;;;4989276;28;20026;-90
2021/05/06 16:11:04;;;;;;;3.28;2.72;;;15.60;56.40;;;;;;4976810;28;20031;-90
2021/05/06 16:14:03;;;;;;;4.20;3.25;;;15.50;56.40;;;;;;4976093;28;20077;-90
2021/05/06 16:17:04;;;;;;;5.55;3.83;;;15.40;56.50;;;;;;4977544;28;20054;-91
2021/05/06 16:19:31;;;;;;;6.63;3.38;;;15.30;56.70;;;;;;4997260;28;20034;-91
2021/05/06 16:21:56;;;;;;;3.78;3.13;;;15.20;56.80;;;;;;4996085;28;20038;-91
2021/05/06 16:24:23;;;;;;;3.25;2.40;;;15.10;56.90;;;;;;4989133;28;20037;-90
2021/05/06 16:26:51;;;;;;;5.05;2.47;;;15.10;57.10;;;;;;5006054;28;20117;-90
2021/05/06 16:29:18;;;;;;;4.63;3.83;;;15.00;57.20;;;;;;4996236;28;20026;-90
2021/05/06 16:31:44;;;;;;;6.85;4.88;;;14.90;57.30;;;;;;5002414;28;20550;-90
2021/05/06 16:34:12;;;;;;;7.50;5.60;;;14.80;57.50;;;;;;4987044;28;20061;-90